createdAt,value
2023-02-09T00:04:26.076Z,5.13
2023-02-09T00:09:31.555Z,4.77
2023-02-09T00:14:37.780Z,4.63
2023-02-09T00:19:45.726Z,4.70
2023-02-09T00:24:52.428Z,4.85
2023-02-09T00:29:57.969Z,4.72
2023-02-09T00:35:07.858Z,4.87
2023-02-09T00:40:14.498Z,4.50
2023-02-09T00:45:20.034Z,4.45
2023-02-09T00:50:28.104Z,4.72
2023-02-09T00:55:33.403Z,5.28
2023-02-09T01:00:38.637Z,4.30
2023-02-09T01:05:46.638Z,5.13
2023-02-09T01:10:51.910Z,4.65
2023-02-09T01:15:59.894Z,4.50
2023-02-09T01:21:13.294Z,5.20
2023-02-09T01:26:19.426Z,5.07
2023-02-09T01:31:28.264Z,4.43
2023-02-09T01:36:36.604Z,5.15
2023-02-09T01:41:42.885Z,5.13
2023-02-09T01:46:48.926Z,5.40
2023-02-09T01:52:00.036Z,4.97
2023-02-09T01:57:09.756Z,5.13
2023-02-09T02:02:17.213Z,5.45
2023-02-09T02:07:30.008Z,5.20
2023-02-09T02:12:38.705Z,5.30
2023-02-09T02:17:56.947Z,5.23
2023-02-09T02:23:15.626Z,5.00
2023-02-09T02:28:45.657Z,5.88
2023-02-09T02:34:03.948Z,4.68
2023-02-09T02:39:17.035Z,5.32
2023-02-09T02:44:22.466Z,5.93
2023-02-09T02:49:36.501Z,5.05
2023-02-09T02:54:44.898Z,5.22
2023-02-09T02:59:54.975Z,5.75
2023-02-09T03:05:05.440Z,6.15
2023-02-09T03:10:28.448Z,6.13
2023-02-09T03:15:41.768Z,5.53
2023-02-09T03:20:53.914Z,5.68
2023-02-09T03:26:00.311Z,5.25
2023-02-09T03:31:07.230Z,5.72
2023-02-09T03:36:18.249Z,6.47
2023-02-09T03:41:23.484Z,6.03
2023-02-09T03:46:28.912Z,6.65
2023-02-09T03:51:36.723Z,6.30
2023-02-09T03:56:41.970Z,5.47
2023-02-09T04:01:47.362Z,6.17
2023-02-09T04:06:56.272Z,5.78
2023-02-09T04:12:01.593Z,6.30
2023-02-09T04:17:06.969Z,6.70
2023-02-09T04:22:14.827Z,6.00
2023-02-09T04:27:22.652Z,6.23
2023-02-09T04:32:27.878Z,6.68
2023-02-09T04:37:36.001Z,6.05
2023-02-09T04:42:41.433Z,6.28
2023-02-09T04:47:46.764Z,6.57
2023-02-09T04:52:54.652Z,5.83
2023-02-09T04:58:12.404Z,6.47
2023-02-09T05:03:17.953Z,7.00
2023-02-09T05:08:26.139Z,6.65
2023-02-09T05:13:31.801Z,7.07
2023-02-09T05:18:38.285Z,7.17
2023-02-09T05:23:46.300Z,6.50
2023-02-09T05:28:51.644Z,6.45
2023-02-09T05:33:57.054Z,6.38
2023-02-09T05:39:05.147Z,7.18
2023-02-09T05:44:10.944Z,7.03
2023-02-09T05:49:16.344Z,7.00
2023-02-09T05:54:24.681Z,8.13
2023-02-09T05:59:30.146Z,6.57
2023-02-09T06:04:35.610Z,7.68
2023-02-09T06:09:43.614Z,6.67
2023-02-09T06:14:49.102Z,7.82
2023-02-09T06:19:54.536Z,6.72
2023-02-09T06:25:02.594Z,7.35
2023-02-09T06:30:09.312Z,7.68
2023-02-09T06:35:14.813Z,7.30
2023-02-09T06:40:23.577Z,7.53
2023-02-09T06:45:28.962Z,8.35
2023-02-09T06:50:34.462Z,7.60
2023-02-09T06:55:42.585Z,7.75
2023-02-09T07:00:48.422Z,7.73
2023-02-09T07:05:53.854Z,7.03
2023-02-09T07:11:05.033Z,7.60
2023-02-09T07:16:12.675Z,7.35
2023-02-09T07:21:20.069Z,8.40
2023-02-09T07:26:28.060Z,7.90
2023-02-09T07:31:33.529Z,8.75
2023-02-09T07:36:39.024Z,7.85
2023-02-09T07:41:47.275Z,8.48
2023-02-09T07:46:53.472Z,8.68
2023-02-09T07:52:01.815Z,9.00
2023-02-09T07:57:09.950Z,8.85
2023-02-09T08:02:21.399Z,8.70
2023-02-09T08:07:26.996Z,7.63
2023-02-09T08:12:47.771Z,8.80
2023-02-09T08:17:55.723Z,8.10
2023-02-09T08:23:06.803Z,8.07
2023-02-09T08:28:14.832Z,8.55
2023-02-09T08:33:20.574Z,9.35
2023-02-09T08:38:26.014Z,9.00
2023-02-09T08:43:34.115Z,9.37
2023-02-09T08:48:41.140Z,7.90
2023-02-09T08:53:52.392Z,9.10
2023-02-09T08:59:00.725Z,8.68
2023-02-09T09:04:06.293Z,8.82
2023-02-09T09:09:12.160Z,9.57
2023-02-09T09:14:20.478Z,9.25
2023-02-09T09:19:25.925Z,10.27
2023-02-09T09:24:31.907Z,9.13
2023-02-09T09:29:40.677Z,9.50
2023-02-09T09:34:46.378Z,9.10
2023-02-09T09:39:51.861Z,10.38
2023-02-09T09:45:00.140Z,9.20
2023-02-09T09:50:07.740Z,9.20
2023-02-09T09:55:23.717Z,9.35
2023-02-09T10:00:39.652Z,10.07
2023-02-09T10:05:46.786Z,9.02
2023-02-09T10:10:57.940Z,9.45
2023-02-09T10:16:06.892Z,8.70
2023-02-09T10:21:14.938Z,8.85
2023-02-09T10:26:26.564Z,8.80
2023-02-09T10:31:36.949Z,8.95
2023-02-09T10:36:50.713Z,9.02
2023-02-09T10:41:58.257Z,9.68
2023-02-09T10:47:28.558Z,9.10
2023-02-09T10:52:38.183Z,9.23
2023-02-09T10:57:43.678Z,8.75
2023-02-09T11:02:57.666Z,8.50
2023-02-09T11:08:22.233Z,10.07
2023-02-09T11:13:32.372Z,9.30
2023-02-09T11:18:45.669Z,9.10
2023-02-09T11:23:57.650Z,9.15
2023-02-09T11:29:09.154Z,10.48
2023-02-09T11:34:27.553Z,9.15
2023-02-09T11:39:42.953Z,10.85
2023-02-09T11:44:57.046Z,8.80
2023-02-09T11:50:08.256Z,8.40
2023-02-09T11:55:25.441Z,9.30
2023-02-09T12:00:52.050Z,7.57
2023-02-09T12:06:03.366Z,7.45
2023-02-09T12:11:30.343Z,9.07
2023-02-09T12:16:40.101Z,8.60
2023-02-09T12:21:48.246Z,8.45
2023-02-09T12:26:58.626Z,8.33
2023-02-09T12:32:31.040Z,8.80
2023-02-09T12:38:18.962Z,8.10
2023-02-09T12:43:32.695Z,7.63
2023-02-09T12:48:50.738Z,7.20
2023-02-09T12:53:59.845Z,7.67
2023-02-09T12:59:23.595Z,7.80
2023-02-09T13:04:29.753Z,8.20
2023-02-09T13:09:41.883Z,8.23
2023-02-09T13:14:52.045Z,7.63
2023-02-09T13:20:21.648Z,7.90
2023-02-09T13:25:35.863Z,7.47
2023-02-09T13:30:41.737Z,7.73
2023-02-09T13:36:08.892Z,7.43
2023-02-09T13:41:31.384Z,6.78
2023-02-09T13:46:37.099Z,6.97
2023-02-09T13:51:42.407Z,6.88
2023-02-09T13:56:51.512Z,6.40
2023-02-09T14:01:57.285Z,7.53
2023-02-09T14:07:08.530Z,6.60
2023-02-09T14:12:20.348Z,8.13
2023-02-09T14:17:27.858Z,6.50
2023-02-09T14:22:35.189Z,6.00
2023-02-09T14:27:44.063Z,5.82
2023-02-09T14:32:54.000Z,6.05
2023-02-09T14:38:01.859Z,6.20
2023-02-09T14:43:25.144Z,7.10
2023-02-09T14:48:32.113Z,6.67
2023-02-09T14:53:50.411Z,6.93
2023-02-09T14:58:55.796Z,6.17
2023-02-09T15:04:01.082Z,5.80
2023-02-09T15:09:09.420Z,5.70
2023-02-09T15:14:15.091Z,5.97
2023-02-09T15:19:24.166Z,5.60
2023-02-09T15:24:32.175Z,7.10
2023-02-09T15:29:37.478Z,5.80
2023-02-09T15:34:42.768Z,6.38
2023-02-09T15:39:51.794Z,5.87
2023-02-09T15:45:09.537Z,6.82
2023-02-09T15:50:14.912Z,6.70
2023-02-09T15:55:25.713Z,6.55
2023-02-09T16:00:33.826Z,6.22
2023-02-09T16:05:39.096Z,6.17
2023-02-09T16:10:49.169Z,5.93
2023-02-09T16:16:00.314Z,6.27
2023-02-09T16:21:19.486Z,6.55
2023-02-09T16:26:29.345Z,7.00
2023-02-09T16:31:34.732Z,5.87
2023-02-09T16:36:41.268Z,7.80
2023-02-09T16:41:50.903Z,6.70
2023-02-09T16:46:58.460Z,6.70
2023-02-09T16:52:07.455Z,6.93
2023-02-09T16:57:19.681Z,6.33
2023-02-09T17:02:33.651Z,7.80
2023-02-09T17:07:53.561Z,7.97
2023-02-09T17:13:04.952Z,8.00
2023-02-09T17:18:12.439Z,7.53
2023-02-09T17:23:19.274Z,7.67
2023-02-09T17:28:28.844Z,7.80
2023-02-09T17:33:36.451Z,8.93
2023-02-09T17:38:44.801Z,9.25
2023-02-09T17:43:56.382Z,8.85
2023-02-09T17:49:01.835Z,9.57
2023-02-09T17:54:08.189Z,10.85
2023-02-09T17:59:19.910Z,15.27
2023-02-09T18:04:28.753Z,11.18
2023-02-09T18:09:34.173Z,10.30
2023-02-09T18:14:42.321Z,8.37
2023-02-09T18:19:47.964Z,9.75
2023-02-09T18:24:59.700Z,8.97
2023-02-09T18:30:08.829Z,10.65
2023-02-09T18:35:20.495Z,9.23
2023-02-09T18:40:26.669Z,9.80
2023-02-09T18:45:35.101Z,21.10
2023-02-09T18:50:41.463Z,40.97
2023-02-09T18:55:48.300Z,22.95
2023-02-09T19:00:57.858Z,11.35
2023-02-09T19:06:03.202Z,15.13
2023-02-09T19:11:15.979Z,16.85
2023-02-09T19:16:24.042Z,15.37
2023-02-09T19:21:31.879Z,10.88
2023-02-09T19:26:38.638Z,10.40
2023-02-09T19:31:46.710Z,13.17
2023-02-09T19:36:52.198Z,12.80
2023-02-09T19:41:57.702Z,13.87
2023-02-09T19:47:06.138Z,13.48
2023-02-09T19:52:11.733Z,13.18
2023-02-09T19:57:17.156Z,15.37
2023-02-09T20:02:25.255Z,13.98
2023-02-09T20:07:30.983Z,13.07
2023-02-09T20:12:40.470Z,13.50
2023-02-09T20:17:48.596Z,14.15
2023-02-09T20:22:54.339Z,17.87
2023-02-09T20:27:59.861Z,15.18
2023-02-09T20:33:08.902Z,15.63
2023-02-09T20:38:14.590Z,13.77
2023-02-09T20:43:33.644Z,14.48
2023-02-09T20:48:45.323Z,15.17
2023-02-09T20:53:50.833Z,14.95
2023-02-09T20:58:56.339Z,13.90
2023-02-09T21:04:07.412Z,14.70
2023-02-09T21:09:16.681Z,14.57
2023-02-09T21:14:32.520Z,14.47
2023-02-09T21:19:49.294Z,14.93
2023-02-09T21:24:57.839Z,15.73
2023-02-09T21:30:03.172Z,15.63
2023-02-09T21:35:11.508Z,14.43
2023-02-09T21:40:17.253Z,14.80
2023-02-09T21:45:22.756Z,15.20
2023-02-09T21:50:31.368Z,16.63
2023-02-09T21:55:38.276Z,16.70
2023-02-09T22:00:43.807Z,14.88
2023-02-09T22:05:58.509Z,15.63
2023-02-09T22:11:05.995Z,16.10
2023-02-09T22:16:12.746Z,16.03
2023-02-09T22:21:20.739Z,15.95
2023-02-09T22:26:26.214Z,16.30
2023-02-09T22:31:32.073Z,16.00
2023-02-09T22:36:40.879Z,16.10
2023-02-09T22:41:47.484Z,16.27
2023-02-09T22:46:55.185Z,16.10
2023-02-09T22:52:03.197Z,14.55
2023-02-09T22:57:08.855Z,15.50
2023-02-09T23:02:14.265Z,15.95
2023-02-09T23:07:22.163Z,15.70
2023-02-09T23:12:28.756Z,15.50
2023-02-09T23:17:35.271Z,16.75
2023-02-09T23:22:43.238Z,15.80
2023-02-09T23:27:48.759Z,15.35
2023-02-09T23:32:54.112Z,16.20
2023-02-09T23:38:02.499Z,17.33
2023-02-09T23:43:07.881Z,15.95
2023-02-09T23:48:13.152Z,15.40
2023-02-09T23:53:21.266Z,17.65
2023-02-09T23:58:26.601Z,16.37
